sensor_id;sensor_type;location;lat;lon;timestamp;pressure;altitude;pressure_sealevel;temperature;humidity
1954;BME280;977;42.704;23.354;2022-08-01T00:00:33;95042.06;;;19.91;78.69
1954;BME280;977;42.704;23.354;2022-08-01T00:02:58;95034.53;;;19.83;80.02
1954;BME280;977;42.704;23.354;2022-08-01T00:05:24;95039.16;;;19.76;80.48
1954;BME280;977;42.704;23.354;2022-08-01T00:07:49;95039.84;;;19.71;81.05
1954;BME280;977;42.704;23.354;2022-08-01T00:10:16;95048.28;;;19.68;81.56
1954;BME280;977;42.704;23.354;2022-08-01T00:12:43;95045.53;;;19.63;81.38
1954;BME280;977;42.704;23.354;2022-08-01T00:15:10;95043.38;;;19.48;82.80
1954;BME280;977;42.704;23.354;2022-08-01T00:17:36;95045.81;;;19.38;83.88
1954;BME280;977;42.704;23.354;2022-08-01T00:20:04;95046.66;;;19.27;84.47
1954;BME280;977;42.704;23.354;2022-08-01T00:22:31;95041.72;;;19.19;85.13
1954;BME280;977;42.704;23.354;2022-08-01T00:24:56;95047.50;;;19.15;85.27
1954;BME280;977;42.704;23.354;2022-08-01T00:27:22;95035.09;;;19.04;85.95
1954;BME280;977;42.704;23.354;2022-08-01T00:29:47;95048.09;;;19.06;86.56
1954;BME280;977;42.704;23.354;2022-08-01T00:32:13;95047.63;;;18.97;85.81
1954;BME280;977;42.704;23.354;2022-08-01T00:34:38;95048.88;;;18.95;86.44
1954;BME280;977;42.704;23.354;2022-08-01T00:37:04;95048.88;;;18.95;86.88
1954;BME280;977;42.704;23.354;2022-08-01T00:39:29;95039.13;;;18.95;87.17
1954;BME280;977;42.704;23.354;2022-08-01T00:41:55;95044.19;;;18.97;86.88
1954;BME280;977;42.704;23.354;2022-08-01T00:44:20;95042.38;;;18.97;86.54
1954;BME280;977;42.704;23.354;2022-08-01T00:46:46;95038.22;;;18.89;86.26
1954;BME280;977;42.704;23.354;2022-08-01T00:49:11;95039.13;;;18.95;86.01
1954;BME280;977;42.704;23.354;2022-08-01T00:51:37;95040.63;;;18.91;86.04
1954;BME280;977;42.704;23.354;2022-08-01T00:54:03;95037.88;;;18.86;86.78
1954;BME280;977;42.704;23.354;2022-08-01T00:56:28;95025.41;;;18.81;86.34
1954;BME280;977;42.704;23.354;2022-08-01T00:58:55;95031.00;;;18.85;86.97
1954;BME280;977;42.704;23.354;2022-08-01T01:01:21;95018.53;;;18.80;87.23
1954;BME280;977;42.704;23.354;2022-08-01T01:03:50;95023.13;;;18.73;87.47
1954;BME280;977;42.704;23.354;2022-08-01T01:06:23;95015.44;;;18.72;87.13
1954;BME280;977;42.704;23.354;2022-08-01T01:09:06;95012.81;;;18.72;86.86
1954;BME280;977;42.704;23.354;2022-08-01T01:11:51;95002.59;;;18.63;87.21
1954;BME280;977;42.704;23.354;2022-08-01T01:14:38;95012.09;;;18.64;87.18
1954;BME280;977;42.704;23.354;2022-08-01T01:17:13;95009.00;;;18.68;86.78
1954;BME280;977;42.704;23.354;2022-08-01T01:19:45;94999.63;;;18.60;87.30
1954;BME280;977;42.704;23.354;2022-08-01T01:22:26;95012.91;;;18.65;86.63
1954;BME280;977;42.704;23.354;2022-08-01T01:25:08;95004.53;;;18.56;86.53
1954;BME280;977;42.704;23.354;2022-08-01T01:30:12;95004.53;;;18.56;85.90
1954;BME280;977;42.704;23.354;2022-08-01T01:32:47;95000.06;;;18.57;86.33
1954;BME280;977;42.704;23.354;2022-08-01T01:35:31;94994.00;;;18.56;85.54
1954;BME280;977;42.704;23.354;2022-08-01T01:38:04;94998.81;;;18.59;85.49
1954;BME280;977;42.704;23.354;2022-08-01T01:40:31;94997.66;;;18.55;85.31
1954;BME280;977;42.704;23.354;2022-08-01T01:42:58;94996.97;;;18.60;85.29
1954;BME280;977;42.704;23.354;2022-08-01T01:45:24;94993.06;;;18.62;85.97
1954;BME280;977;42.704;23.354;2022-08-01T01:47:51;94985.75;;;18.64;84.93
1954;BME280;977;42.704;23.354;2022-08-01T01:50:21;94984.03;;;18.70;84.78
1954;BME280;977;42.704;23.354;2022-08-01T01:52:47;94986.00;;;18.75;84.48
1954;BME280;977;42.704;23.354;2022-08-01T01:55:15;94993.44;;;18.78;84.13
1954;BME280;977;42.704;23.354;2022-08-01T01:57:42;94981.63;;;18.80;83.98
1954;BME280;977;42.704;23.354;2022-08-01T02:00:11;94977.03;;;18.76;83.26
1954;BME280;977;42.704;23.354;2022-08-01T02:02:37;94987.22;;;18.84;83.12
1954;BME280;977;42.704;23.354;2022-08-01T02:05:05;94975.00;;;18.78;82.73
1954;BME280;977;42.704;23.354;2022-08-01T02:07:33;94969.22;;;18.81;82.87
1954;BME280;977;42.704;23.354;2022-08-01T02:10:00;94981.38;;;18.82;82.04
1954;BME280;977;42.704;23.354;2022-08-01T02:12:27;94982.19;;;18.82;81.79
1954;BME280;977;42.704;23.354;2022-08-01T02:14:55;94972.34;;;18.78;81.55
1954;BME280;977;42.704;23.354;2022-08-01T02:17:23;94986.19;;;18.85;81.26
1954;BME280;977;42.704;23.354;2022-08-01T02:19:50;94980.91;;;18.85;81.85
1954;BME280;977;42.704;23.354;2022-08-01T02:22:27;94981.38;;;18.82;82.86
1954;BME280;977;42.704;23.354;2022-08-01T02:27:30;94982.88;;;18.66;84.87
1954;BME280;977;42.704;23.354;2022-08-01T02:30:04;94977.72;;;18.59;84.64
1954;BME280;977;42.704;23.354;2022-08-01T02:32:35;94979.66;;;18.52;85.47
1954;BME280;977;42.704;23.354;2022-08-01T02:35:02;94985.19;;;18.51;85.65
1954;BME280;977;42.704;23.354;2022-08-01T02:37:31;94977.38;;;18.44;86.49
1954;BME280;977;42.704;23.354;2022-08-01T02:39:59;94982.66;;;18.44;86.80
1954;BME280;977;42.704;23.354;2022-08-01T02:42:26;94970.66;;;18.36;86.69
1954;BME280;977;42.704;23.354;2022-08-01T02:44:53;94974.75;;;18.32;86.79
1954;BME280;977;42.704;23.354;2022-08-01T02:47:20;94985.19;;;18.27;86.64
1954;BME280;977;42.704;23.354;2022-08-01T02:49:48;94978.78;;;18.23;85.82
1954;BME280;977;42.704;23.354;2022-08-01T02:52:17;94982.88;;;18.19;85.98
1954;BME280;977;42.704;23.354;2022-08-01T02:54:44;94972.13;;;18.09;84.87
1954;BME280;977;42.704;23.354;2022-08-01T02:57:12;94972.25;;;18.02;85.33
1954;BME280;977;42.704;23.354;2022-08-01T02:59:39;94974.28;;;18.00;85.13
1954;BME280;977;42.704;23.354;2022-08-01T03:02:06;94977.84;;;17.94;84.61
1954;BME280;977;42.704;23.354;2022-08-01T03:04:34;94977.47;;;17.91;84.98
1954;BME280;977;42.704;23.354;2022-08-01T03:07:03;94982.19;;;17.88;85.48
1954;BME280;977;42.704;23.354;2022-08-01T03:09:31;94982.75;;;17.79;85.58
1954;BME280;977;42.704;23.354;2022-08-01T03:12:00;94982.25;;;17.82;86.42
1954;BME280;977;42.704;23.354;2022-08-01T03:14:29;94976.19;;;17.81;86.51
1954;BME280;977;42.704;23.354;2022-08-01T03:16:57;94975.84;;;17.78;86.78
1954;BME280;977;42.704;23.354;2022-08-01T03:19:25;94977.34;;;17.74;87.39
1954;BME280;977;42.704;23.354;2022-08-01T03:21:53;94970.78;;;17.65;88.55
1954;BME280;977;42.704;23.354;2022-08-01T03:24:21;94980.13;;;17.60;88.15
1954;BME280;977;42.704;23.354;2022-08-01T03:26:49;94990.31;;;17.57;88.94
1954;BME280;977;42.704;23.354;2022-08-01T03:29:21;94989.94;;;17.53;89.79
1954;BME280;977;42.704;23.354;2022-08-01T03:31:48;94989.38;;;17.51;89.81
1954;BME280;977;42.704;23.354;2022-08-01T03:34:14;94984.13;;;17.51;89.61
1954;BME280;977;42.704;23.354;2022-08-01T03:36:47;94979.06;;;17.50;89.17
1954;BME280;977;42.704;23.354;2022-08-01T03:39:14;94979.28;;;17.48;90.06
1954;BME280;977;42.704;23.354;2022-08-01T03:41:45;94979.88;;;17.50;89.25
1954;BME280;977;42.704;23.354;2022-08-01T03:44:16;94985.16;;;17.50;88.75
1954;BME280;977;42.704;23.354;2022-08-01T03:46:47;94995.13;;;17.60;88.70
1954;BME280;977;42.704;23.354;2022-08-01T03:49:23;94988.28;;;17.71;88.45
1954;BME280;977;42.704;23.354;2022-08-01T03:51:51;94985.69;;;17.82;87.69
1954;BME280;977;42.704;23.354;2022-08-01T03:54:21;94987.78;;;17.92;87.39
1954;BME280;977;42.704;23.354;2022-08-01T03:56:49;94998.78;;;18.01;86.39
1954;BME280;977;42.704;23.354;2022-08-01T03:59:17;94990.31;;;18.10;85.17
1954;BME280;977;42.704;23.354;2022-08-01T04:01:45;94992.06;;;18.17;86.23
1954;BME280;977;42.704;23.354;2022-08-01T04:04:12;94999.16;;;18.28;85.20
1954;BME280;977;42.704;23.354;2022-08-01T04:06:39;95001.34;;;18.31;84.71
1954;BME280;977;42.704;23.354;2022-08-01T04:09:06;94999.97;;;18.40;85.23
1954;BME280;977;42.704;23.354;2022-08-01T04:11:32;95006.16;;;18.46;83.75
1954;BME280;977;42.704;23.354;2022-08-01T04:13:58;95000.53;;;18.54;83.52
1954;BME280;977;42.704;23.354;2022-08-01T04:16:23;95002.94;;;18.55;81.96
1954;BME280;977;42.704;23.354;2022-08-01T04:18:49;95002.00;;;18.61;81.33
1954;BME280;977;42.704;23.354;2022-08-01T04:21:17;94992.63;;;18.65;81.02
1954;BME280;977;42.704;23.354;2022-08-01T04:23:44;94993.78;;;18.70;81.47
1954;BME280;977;42.704;23.354;2022-08-01T04:26:12;95000.31;;;18.79;80.33
1954;BME280;977;42.704;23.354;2022-08-01T04:28:39;95006.03;;;18.87;80.61
1954;BME280;977;42.704;23.354;2022-08-01T04:31:08;95001.47;;;18.83;79.59
1954;BME280;977;42.704;23.354;2022-08-01T04:33:47;94995.03;;;18.79;79.88
1954;BME280;977;42.704;23.354;2022-08-01T04:36:17;94994.56;;;18.94;79.17
1954;BME280;977;42.704;23.354;2022-08-01T04:38:48;94998.78;;;19.06;79.09
1954;BME280;977;42.704;23.354;2022-08-01T04:41:15;94994.72;;;19.15;78.13
1954;BME280;977;42.704;23.354;2022-08-01T04:43:42;95003.03;;;19.36;77.90
1954;BME280;977;42.704;23.354;2022-08-01T04:46:07;94991.25;;;19.55;77.63
1954;BME280;977;42.704;23.354;2022-08-01T04:48:36;94994.84;;;19.78;76.81
1954;BME280;977;42.704;23.354;2022-08-01T04:51:03;94998.53;;;19.94;75.49
1954;BME280;977;42.704;23.354;2022-08-01T04:53:28;94993.41;;;20.04;74.35
1954;BME280;977;42.704;23.354;2022-08-01T04:55:57;95001.81;;;20.17;73.29
1954;BME280;977;42.704;23.354;2022-08-01T04:58:23;94999.91;;;20.30;72.41
1954;BME280;977;42.704;23.354;2022-08-01T05:00:48;94987.50;;;20.30;71.57
1954;BME280;977;42.704;23.354;2022-08-01T05:03:14;94996.13;;;20.42;71.36
1954;BME280;977;42.704;23.354;2022-08-01T05:05:39;94987.06;;;20.55;70.02
1954;BME280;977;42.704;23.354;2022-08-01T05:08:05;94981.84;;;20.60;69.57
1954;BME280;977;42.704;23.354;2022-08-01T05:10:31;94973.38;;;20.58;68.72
1954;BME280;977;42.704;23.354;2022-08-01T05:12:57;94986.66;;;20.80;67.79
1954;BME280;977;42.704;23.354;2022-08-01T05:15:23;94977.09;;;21.01;67.99
1954;BME280;977;42.704;23.354;2022-08-01T05:17:48;94976.84;;;21.25;66.56
1954;BME280;977;42.704;23.354;2022-08-01T05:20:14;94968.25;;;21.34;65.27
1954;BME280;977;42.704;23.354;2022-08-01T05:22:40;94974.00;;;21.53;64.75
1954;BME280;977;42.704;23.354;2022-08-01T05:25:14;94970.03;;;21.83;64.81
1954;BME280;977;42.704;23.354;2022-08-01T05:27:40;94976.00;;;22.00;62.76
1954;BME280;977;42.704;23.354;2022-08-01T05:30:09;94973.28;;;22.17;62.39
1954;BME280;977;42.704;23.354;2022-08-01T05:32:34;94977.06;;;22.26;61.87
1954;BME280;977;42.704;23.354;2022-08-01T05:35:00;94978.72;;;22.37;60.77
1954;BME280;977;42.704;23.354;2022-08-01T05:37:25;94973.81;;;22.61;59.34
1954;BME280;977;42.704;23.354;2022-08-01T05:39:51;94972.56;;;22.74;59.39
1954;BME280;977;42.704;23.354;2022-08-01T05:42:16;94981.09;;;22.86;58.28
1954;BME280;977;42.704;23.354;2022-08-01T05:44:42;94986.50;;;22.91;55.39
1954;BME280;977;42.704;23.354;2022-08-01T05:47:07;94971.44;;;23.07;55.51
1954;BME280;977;42.704;23.354;2022-08-01T05:49:33;94969.88;;;23.21;54.81
1954;BME280;977;42.704;23.354;2022-08-01T05:51:58;94975.97;;;23.17;54.12
1954;BME280;977;42.704;23.354;2022-08-01T05:54:26;94976.31;;;23.41;53.70
1954;BME280;977;42.704;23.354;2022-08-01T05:56:52;94977.41;;;23.55;53.42
1954;BME280;977;42.704;23.354;2022-08-01T05:59:21;94986.78;;;23.88;53.03
1954;BME280;977;42.704;23.354;2022-08-01T06:01:49;94988.66;;;24.08;52.37
1954;BME280;977;42.704;23.354;2022-08-01T06:04:15;94984.66;;;24.31;52.60
1954;BME280;977;42.704;23.354;2022-08-01T06:06:40;94985.50;;;24.42;51.44
1954;BME280;977;42.704;23.354;2022-08-01T06:09:06;94984.16;;;24.55;51.48
1954;BME280;977;42.704;23.354;2022-08-01T06:11:31;94983.28;;;24.74;50.78
1954;BME280;977;42.704;23.354;2022-08-01T06:13:57;94983.88;;;24.66;50.31
1954;BME280;977;42.704;23.354;2022-08-01T06:16:22;94983.31;;;24.64;49.34
1954;BME280;977;42.704;23.354;2022-08-01T06:18:48;94981.50;;;24.50;49.67
1954;BME280;977;42.704;23.354;2022-08-01T06:21:16;94984.69;;;24.52;49.52
1954;BME280;977;42.704;23.354;2022-08-01T06:23:42;94992.09;;;24.65;49.73
1954;BME280;977;42.704;23.354;2022-08-01T06:26:08;94984.91;;;24.76;48.60
1954;BME280;977;42.704;23.354;2022-08-01T06:28:34;94985.16;;;24.89;49.03
1954;BME280;977;42.704;23.354;2022-08-01T06:30:59;94992.28;;;25.14;48.80
1954;BME280;977;42.704;23.354;2022-08-01T06:33:26;94989.88;;;25.03;49.11
1954;BME280;977;42.704;23.354;2022-08-01T06:35:51;94976.81;;;25.11;49.00
1954;BME280;977;42.704;23.354;2022-08-01T06:38:24;94968.78;;;25.27;47.33
1954;BME280;977;42.704;23.354;2022-08-01T06:40:50;94968.81;;;25.16;47.02
1954;BME280;977;42.704;23.354;2022-08-01T06:43:15;94979.94;;;25.34;47.21
1954;BME280;977;42.704;23.354;2022-08-01T06:48:53;94967.63;;;25.43;46.74
1954;BME280;977;42.704;23.354;2022-08-01T06:51:19;94948.41;;;25.51;45.72
1954;BME280;977;42.704;23.354;2022-08-01T06:53:45;94957.44;;;25.55;45.15
1954;BME280;977;42.704;23.354;2022-08-01T06:56:15;94944.66;;;25.52;45.65
1954;BME280;977;42.704;23.354;2022-08-01T06:58:44;94946.69;;;25.76;44.70
1954;BME280;977;42.704;23.354;2022-08-01T07:01:12;94947.81;;;25.59;44.64
1954;BME280;977;42.704;23.354;2022-08-01T07:03:39;94947.84;;;25.54;45.48
1954;BME280;977;42.704;23.354;2022-08-01T07:06:05;94937.97;;;25.60;44.81
1954;BME280;977;42.704;23.354;2022-08-01T07:08:31;94936.53;;;25.78;44.20
1954;BME280;977;42.704;23.354;2022-08-01T07:10:56;94949.19;;;25.96;44.25
1954;BME280;977;42.704;23.354;2022-08-01T07:13:27;94950.44;;;26.38;43.50
1954;BME280;977;42.704;23.354;2022-08-01T07:15:53;94949.81;;;26.51;43.24
1954;BME280;977;42.704;23.354;2022-08-01T07:18:19;94966.03;;;26.84;43.11
1954;BME280;977;42.704;23.354;2022-08-01T07:20:45;94958.31;;;26.82;42.81
1954;BME280;977;42.704;23.354;2022-08-01T07:23:12;94942.78;;;26.60;42.88
1954;BME280;977;42.704;23.354;2022-08-01T07:25:40;94953.25;;;26.52;42.60
1954;BME280;977;42.704;23.354;2022-08-01T07:28:06;94946.78;;;26.58;43.33
1954;BME280;977;42.704;23.354;2022-08-01T07:30:32;94962.06;;;26.52;42.69
1954;BME280;977;42.704;23.354;2022-08-01T07:32:57;94964.72;;;26.52;42.70
1954;BME280;977;42.704;23.354;2022-08-01T07:35:23;94947.63;;;26.53;42.97
1954;BME280;977;42.704;23.354;2022-08-01T07:37:48;94946.28;;;26.27;43.22
1954;BME280;977;42.704;23.354;2022-08-01T07:40:23;94950.13;;;26.10;43.26
1954;BME280;977;42.704;23.354;2022-08-01T07:42:49;94950.44;;;26.38;43.53
1954;BME280;977;42.704;23.354;2022-08-01T07:45:14;94946.22;;;26.61;42.89
1954;BME280;977;42.704;23.354;2022-08-01T07:47:40;94953.63;;;26.93;42.55
1954;BME280;977;42.704;23.354;2022-08-01T07:50:07;94957.34;;;27.40;43.11
1954;BME280;977;42.704;23.354;2022-08-01T07:52:32;94947.84;;;27.52;42.30
1954;BME280;977;42.704;23.354;2022-08-01T07:54:58;94943.78;;;27.55;41.95
1954;BME280;977;42.704;23.354;2022-08-01T07:57:24;94932.44;;;27.25;42.06
1954;BME280;977;42.704;23.354;2022-08-01T07:59:51;94945.63;;;26.93;42.07
1954;BME280;977;42.704;23.354;2022-08-01T08:02:19;94944.91;;;26.58;42.62
1954;BME280;977;42.704;23.354;2022-08-01T08:04:45;94941.13;;;26.64;43.27
1954;BME280;977;42.704;23.354;2022-08-01T08:07:10;94938.34;;;26.74;43.49
1954;BME280;977;42.704;23.354;2022-08-01T08:09:36;94936.88;;;26.63;43.08
1954;BME280;977;42.704;23.354;2022-08-01T08:12:01;94952.97;;;26.53;43.62
1954;BME280;977;42.704;23.354;2022-08-01T08:14:30;94945.25;;;26.52;43.63
1954;BME280;977;42.704;23.354;2022-08-01T08:17:13;94938.00;;;26.81;43.61
1954;BME280;977;42.704;23.354;2022-08-01T08:19:42;94944.03;;;27.16;42.73
1954;BME280;977;42.704;23.354;2022-08-01T08:22:08;94945.34;;;27.37;42.24
1954;BME280;977;42.704;23.354;2022-08-01T08:24:36;94939.59;;;27.68;40.29
1954;BME280;977;42.704;23.354;2022-08-01T08:27:03;94951.44;;;27.99;39.92
1954;BME280;977;42.704;23.354;2022-08-01T08:29:31;94941.28;;;28.34;39.29
1954;BME280;977;42.704;23.354;2022-08-01T08:32:02;94940.53;;;28.61;38.95
1954;BME280;977;42.704;23.354;2022-08-01T08:34:29;94949.53;;;28.65;38.90
1954;BME280;977;42.704;23.354;2022-08-01T08:36:56;94961.25;;;28.69;38.95
1954;BME280;977;42.704;23.354;2022-08-01T08:39:23;94951.69;;;28.17;39.25
1954;BME280;977;42.704;23.354;2022-08-01T08:41:49;94946.16;;;28.27;38.67
1954;BME280;977;42.704;23.354;2022-08-01T08:44:15;94968.13;;;28.75;38.53
1954;BME280;977;42.704;23.354;2022-08-01T08:46:46;94951.84;;;28.86;38.33
1954;BME280;977;42.704;23.354;2022-08-01T08:49:16;94934.50;;;28.97;38.02
1954;BME280;977;42.704;23.354;2022-08-01T08:51:42;94943.50;;;28.87;37.94
1954;BME280;977;42.704;23.354;2022-08-01T08:54:11;94939.25;;;28.86;37.71
1954;BME280;977;42.704;23.354;2022-08-01T08:56:43;94932.56;;;28.70;38.24
1954;BME280;977;42.704;23.354;2022-08-01T08:59:11;94929.72;;;28.66;37.65
1954;BME280;977;42.704;23.354;2022-08-01T09:01:38;94928.59;;;28.40;37.45
1954;BME280;977;42.704;23.354;2022-08-01T09:04:05;94927.91;;;28.48;37.14
1954;BME280;977;42.704;23.354;2022-08-01T09:06:32;94910.28;;;28.61;37.63
1954;BME280;977;42.704;23.354;2022-08-01T09:08:58;94941.81;;;28.31;38.90
1954;BME280;977;42.704;23.354;2022-08-01T09:11:24;94936.53;;;28.59;37.84
1954;BME280;977;42.704;23.354;2022-08-01T09:14:13;94932.38;;;28.52;37.44
1954;BME280;977;42.704;23.354;2022-08-01T09:16:44;94928.19;;;28.60;37.12
1954;BME280;977;42.704;23.354;2022-08-01T09:19:18;94915.53;;;28.66;36.55
1954;BME280;977;42.704;23.354;2022-08-01T09:22:02;94918.59;;;28.26;37.52
1954;BME280;977;42.704;23.354;2022-08-01T09:24:31;94923.84;;;28.64;37.62
1954;BME280;977;42.704;23.354;2022-08-01T09:26:58;94922.69;;;29.12;37.55
1954;BME280;977;42.704;23.354;2022-08-01T09:29:28;94913.94;;;29.20;36.26
1954;BME280;977;42.704;23.354;2022-08-01T09:31:55;94915.72;;;29.24;36.50
1954;BME280;977;42.704;23.354;2022-08-01T09:34:30;94914.94;;;29.10;36.15
1954;BME280;977;42.704;23.354;2022-08-01T09:37:00;94896.84;;;29.29;36.44
1954;BME280;977;42.704;23.354;2022-08-01T09:39:29;94907.00;;;28.77;36.47
1954;BME280;977;42.704;23.354;2022-08-01T09:42:00;94924.78;;;29.01;35.87
1954;BME280;977;42.704;23.354;2022-08-01T09:44:39;94935.78;;;29.27;35.54
1954;BME280;977;42.704;23.354;2022-08-01T09:47:07;94913.50;;;29.40;34.85
1954;BME280;977;42.704;23.354;2022-08-01T09:49:38;94933.72;;;29.74;34.83
1954;BME280;977;42.704;23.354;2022-08-01T09:52:14;94918.03;;;29.90;34.75
1954;BME280;977;42.704;23.354;2022-08-01T09:54:58;94927.19;;;29.52;35.71
1954;BME280;977;42.704;23.354;2022-08-01T09:57:25;94922.19;;;29.23;35.95
1954;BME280;977;42.704;23.354;2022-08-01T10:00:00;94923.06;;;29.33;36.47
1954;BME280;977;42.704;23.354;2022-08-01T10:02:34;94913.56;;;29.13;35.58
1954;BME280;977;42.704;23.354;2022-08-01T10:05:02;94916.72;;;28.87;35.42
1954;BME280;977;42.704;23.354;2022-08-01T10:07:28;94925.66;;;28.83;36.07
1954;BME280;977;42.704;23.354;2022-08-01T10:09:53;94914.16;;;29.10;37.41
1954;BME280;977;42.704;23.354;2022-08-01T10:12:23;94917.31;;;29.12;38.05
1954;BME280;977;42.704;23.354;2022-08-01T10:14:50;94906.34;;;29.36;38.23
1954;BME280;977;42.704;23.354;2022-08-01T10:17:20;94908.38;;;29.02;37.57
1954;BME280;977;42.704;23.354;2022-08-01T10:19:49;94908.00;;;29.09;37.26
1954;BME280;977;42.704;23.354;2022-08-01T10:22:16;94906.50;;;29.53;36.92
1954;BME280;977;42.704;23.354;2022-08-01T10:24:47;94900.16;;;29.63;36.34
1954;BME280;977;42.704;23.354;2022-08-01T10:27:17;94890.28;;;29.94;35.96
1954;BME280;977;42.704;23.354;2022-08-01T10:29:50;94875.78;;;29.37;35.95
1954;BME280;977;42.704;23.354;2022-08-01T10:32:17;94883.19;;;28.90;37.04
1954;BME280;977;42.704;23.354;2022-08-01T10:34:43;94890.50;;;29.25;36.78
1954;BME280;977;42.704;23.354;2022-08-01T10:37:12;94884.84;;;29.63;35.58
1954;BME280;977;42.704;23.354;2022-08-01T10:39:42;94900.88;;;29.77;36.00
1954;BME280;977;42.704;23.354;2022-08-01T10:42:10;94881.81;;;29.56;36.17
1954;BME280;977;42.704;23.354;2022-08-01T10:44:37;94887.41;;;29.68;35.78
1954;BME280;977;42.704;23.354;2022-08-01T10:47:15;94884.00;;;29.99;35.55
1954;BME280;977;42.704;23.354;2022-08-01T10:50:40;94881.16;;;30.18;35.53
1954;BME280;977;42.704;23.354;2022-08-01T10:52:42;94863.00;;;30.01;35.61
1954;BME280;977;42.704;23.354;2022-08-01T10:55:27;94869.69;;;29.81;35.47
1954;BME280;977;42.704;23.354;2022-08-01T10:57:53;94878.81;;;29.80;36.19
1954;BME280;977;42.704;23.354;2022-08-01T11:00:21;94867.44;;;29.38;36.33
1954;BME280;977;42.704;23.354;2022-08-01T11:03:01;94881.31;;;29.76;35.53
1954;BME280;977;42.704;23.354;2022-08-01T11:05:31;94877.53;;;30.00;36.14
1954;BME280;977;42.704;23.354;2022-08-01T11:08:01;94868.06;;;30.25;35.88
1954;BME280;977;42.704;23.354;2022-08-01T11:12:59;94882.53;;;29.70;36.14
1954;BME280;977;42.704;23.354;2022-08-01T11:15:28;94875.09;;;29.67;36.55
1954;BME280;977;42.704;23.354;2022-08-01T11:17:58;94870.91;;;29.75;35.85
1954;BME280;977;42.704;23.354;2022-08-01T11:20:28;94869.72;;;30.12;36.15
1954;BME280;977;42.704;23.354;2022-08-01T11:33:16;94859.69;;;30.66;35.32
1954;BME280;977;42.704;23.354;2022-08-01T11:38:42;94858.94;;;29.81;36.75
1954;BME280;977;42.704;23.354;2022-08-01T11:41:29;94844.72;;;30.03;35.74
1954;BME280;977;42.704;23.354;2022-08-01T11:52:25;94838.25;;;29.37;36.34
1954;BME280;977;42.704;23.354;2022-08-01T11:55:04;94850.25;;;29.39;36.58
1954;BME280;977;42.704;23.354;2022-08-01T11:57:33;94855.22;;;29.68;35.59
1954;BME280;977;42.704;23.354;2022-08-01T12:00:04;94861.22;;;29.65;36.35
1954;BME280;977;42.704;23.354;2022-08-01T12:02:36;94862.78;;;29.66;37.07
1954;BME280;977;42.704;23.354;2022-08-01T12:05:06;94829.84;;;29.52;36.49
1954;BME280;977;42.704;23.354;2022-08-01T12:07:37;94846.19;;;29.42;37.27
1954;BME280;977;42.704;23.354;2022-08-01T12:10:16;94831.53;;;29.25;37.21
1954;BME280;977;42.704;23.354;2022-08-01T12:15:39;94845.03;;;29.20;37.44
1954;BME280;977;42.704;23.354;2022-08-01T12:18:16;94840.50;;;28.93;37.20
1954;BME280;977;42.704;23.354;2022-08-01T12:20:44;94851.22;;;29.07;37.42
1954;BME280;977;42.704;23.354;2022-08-01T12:23:15;94856.50;;;29.35;37.78
1954;BME280;977;42.704;23.354;2022-08-01T12:25:41;94846.81;;;29.61;36.99
1954;BME280;977;42.704;23.354;2022-08-01T12:28:11;94837.94;;;29.74;36.63
1954;BME280;977;42.704;23.354;2022-08-01T12:30:49;94851.53;;;29.42;36.93
1954;BME280;977;42.704;23.354;2022-08-01T12:33:34;94848.84;;;29.42;37.38
1954;BME280;977;42.704;23.354;2022-08-01T12:36:06;94860.00;;;28.99;38.23
1954;BME280;977;42.704;23.354;2022-08-01T12:38:38;94854.31;;;28.87;37.63
1954;BME280;977;42.704;23.354;2022-08-01T12:41:15;94862.38;;;29.00;38.50
1954;BME280;977;42.704;23.354;2022-08-01T12:43:40;94845.38;;;28.91;38.50
1954;BME280;977;42.704;23.354;2022-08-01T12:46:06;94840.63;;;29.02;38.17
1954;BME280;977;42.704;23.354;2022-08-01T12:48:50;94844.81;;;29.31;38.12
1954;BME280;977;42.704;23.354;2022-08-01T12:51:15;94838.72;;;29.39;37.84
1954;BME280;977;42.704;23.354;2022-08-01T12:53:41;94822.44;;;29.35;37.58
1954;BME280;977;42.704;23.354;2022-08-01T12:56:08;94835.66;;;29.45;37.71
1954;BME280;977;42.704;23.354;2022-08-01T12:58:42;94822.97;;;29.37;37.54
1954;BME280;977;42.704;23.354;2022-08-01T13:01:09;94827.03;;;29.35;37.29
1954;BME280;977;42.704;23.354;2022-08-01T13:03:35;94820.47;;;29.05;38.44
1954;BME280;977;42.704;23.354;2022-08-01T13:06:11;94825.84;;;28.91;38.55
1954;BME280;977;42.704;23.354;2022-08-01T13:08:37;94818.19;;;28.84;37.89
1954;BME280;977;42.704;23.354;2022-08-01T13:13:41;94821.97;;;28.83;38.55
1954;BME280;977;42.704;23.354;2022-08-01T13:16:08;94821.78;;;28.80;38.91
1954;BME280;977;42.704;23.354;2022-08-01T13:18:35;94814.03;;;28.78;39.36
1954;BME280;977;42.704;23.354;2022-08-01T13:26:41;94822.38;;;29.26;38.46
1954;BME280;977;42.704;23.354;2022-08-01T13:29:07;94809.84;;;29.36;38.44
1954;BME280;977;42.704;23.354;2022-08-01T13:31:34;94821.13;;;29.24;38.65
1954;BME280;977;42.704;23.354;2022-08-01T13:34:01;94816.50;;;28.88;38.60
1954;BME280;977;42.704;23.354;2022-08-01T13:36:26;94809.00;;;28.76;39.63
1954;BME280;977;42.704;23.354;2022-08-01T13:38:54;94811.00;;;28.71;39.32
1954;BME280;977;42.704;23.354;2022-08-01T13:41:39;94823.09;;;28.68;38.93
1954;BME280;977;42.704;23.354;2022-08-01T13:44:04;94811.00;;;28.57;39.47
1954;BME280;977;42.704;23.354;2022-08-01T13:46:31;94818.53;;;28.55;39.67
1954;BME280;977;42.704;23.354;2022-08-01T13:48:56;94808.69;;;28.78;39.97
1954;BME280;977;42.704;23.354;2022-08-01T13:51:22;94797.50;;;28.76;39.73
1954;BME280;977;42.704;23.354;2022-08-01T13:53:47;94809.22;;;28.66;39.72
1954;BME280;977;42.704;23.354;2022-08-01T13:56:13;94804.44;;;28.36;40.54
1954;BME280;977;42.704;23.354;2022-08-01T13:58:38;94809.66;;;28.13;40.35
1954;BME280;977;42.704;23.354;2022-08-01T14:01:04;94800.56;;;28.14;40.25
1954;BME280;977;42.704;23.354;2022-08-01T14:03:32;94787.66;;;28.16;40.37
1954;BME280;977;42.704;23.354;2022-08-01T14:05:57;94798.00;;;28.09;40.16
1954;BME280;977;42.704;23.354;2022-08-01T14:08:23;94797.56;;;28.02;41.03
1954;BME280;977;42.704;23.354;2022-08-01T14:10:49;94810.19;;;28.15;41.04
1954;BME280;977;42.704;23.354;2022-08-01T14:13:14;94797.06;;;28.27;40.50